KLRO/LRO METAR and TAF weather

Enter ICAO airport designator
Station Type Date Time Source
KLRO METAR 2019/06/18 04:55 UTC NOAA

KLRO 180455Z AUTO 00000KT 9SM CLR 25/24 A3007 RMK AO2


Station Type Date Time Source
KLRO Decoded METAR 2019/06/18 04:55 UTC NOAA

Station name not available
Jun 18, 2019 - 12:55 AM EDT / 2019.06.18 0455 UTC
Wind: Calm:0
Visibility: 9 mile(s):0
Sky conditions: clear
Temperature: 77 F (25 C)
Dew Point: 75 F (24 C)
Relative Humidity: 94%
Pressure (altimeter): 30.07 in. Hg (1018 hPa)
ob: KLRO 180455Z AUTO 00000KT 9SM CLR 25/24 A3007 RMK AO2
cycle: 5

Station Type Date Time Source
KLRO TAF UTC NOAA

Error!

Example: see airport list